sensor_id;sensor_type;location;lat;lon;timestamp;pressure;altitude;pressure_sealevel;temperature;humidity
77240;BME280;66258;53.170;-2.240;2023-08-06T00:01:53;100229.63;;;20.29;100.00
77240;BME280;66258;53.170;-2.240;2023-08-06T00:04:21;100229.03;;;20.27;100.00
77240;BME280;66258;53.170;-2.240;2023-08-06T00:06:50;100230.94;;;20.27;100.00
77240;BME280;66258;53.170;-2.240;2023-08-06T00:09:18;100229.03;;;20.27;100.00
77240;BME280;66258;53.170;-2.240;2023-08-06T00:11:48;100231.53;;;20.29;100.00
77240;BME280;66258;53.170;-2.240;2023-08-06T00:14:16;100236.28;;;20.40;100.00
77240;BME280;66258;53.170;-2.240;2023-08-06T00:16:44;100237.13;;;20.40;100.00
77240;BME280;66258;53.170;-2.240;2023-08-06T00:19:11;100239.88;;;20.40;100.00
77240;BME280;66258;53.170;-2.240;2023-08-06T00:21:38;100242.63;;;20.40;100.00
77240;BME280;66258;53.170;-2.240;2023-08-06T00:24:07;100246.66;;;20.19;100.00
77240;BME280;66258;53.170;-2.240;2023-08-06T00:26:34;100250.13;;;19.97;100.00
77240;BME280;66258;53.170;-2.240;2023-08-06T00:29:01;100251.34;;;20.01;100.00
77240;BME280;66258;53.170;-2.240;2023-08-06T00:31:29;100258.69;;;19.88;100.00
77240;BME280;66258;53.170;-2.240;2023-08-06T00:33:56;100258.69;;;19.88;100.00
77240;BME280;66258;53.170;-2.240;2023-08-06T00:36:23;100262.44;;;19.94;100.00
77240;BME280;66258;53.170;-2.240;2023-08-06T00:38:50;100264.84;;;20.02;100.00
77240;BME280;66258;53.170;-2.240;2023-08-06T00:41:19;100268.22;;;20.04;100.00
77240;BME280;66258;53.170;-2.240;2023-08-06T00:43:46;100269.50;;;20.02;100.00
77240;BME280;66258;53.170;-2.240;2023-08-06T00:46:13;100265.69;;;20.03;100.00
77240;BME280;66258;53.170;-2.240;2023-08-06T00:48:41;100266.53;;;20.03;100.00
77240;BME280;66258;53.170;-2.240;2023-08-06T00:51:10;100272.66;;;20.05;100.00
77240;BME280;66258;53.170;-2.240;2023-08-06T00:53:38;100267.75;;;20.07;100.00
77240;BME280;66258;53.170;-2.240;2023-08-06T00:56:06;100268.59;;;20.08;100.00
77240;BME280;66258;53.170;-2.240;2023-08-06T00:58:35;100266.00;;;20.13;100.00
77240;BME280;66258;53.170;-2.240;2023-08-06T01:01:04;100272.97;;;20.15;100.00
77240;BME280;66258;53.170;-2.240;2023-08-06T01:03:31;100270.56;;;20.19;100.00
77240;BME280;66258;53.170;-2.240;2023-08-06T01:05:59;100278.13;;;20.23;100.00
77240;BME280;66258;53.170;-2.240;2023-08-06T01:08:32;100279.56;;;20.26;100.00
77240;BME280;66258;53.170;-2.240;2023-08-06T01:11:16;100274.22;;;20.31;100.00
77240;BME280;66258;53.170;-2.240;2023-08-06T01:13:52;100284.53;;;20.36;100.00
77240;BME280;66258;53.170;-2.240;2023-08-06T01:16:24;100279.19;;;20.22;100.00
77240;BME280;66258;53.170;-2.240;2023-08-06T01:18:51;100278.75;;;20.07;100.00
77240;BME280;66258;53.170;-2.240;2023-08-06T01:21:19;100272.25;;;20.02;100.00
77240;BME280;66258;53.170;-2.240;2023-08-06T01:23:47;100274.44;;;19.75;100.00
77240;BME280;66258;53.170;-2.240;2023-08-06T01:26:21;100280.66;;;20.07;100.00
77240;BME280;66258;53.170;-2.240;2023-08-06T01:28:58;100292.09;;;20.22;100.00
77240;BME280;66258;53.170;-2.240;2023-08-06T01:31:28;100291.47;;;20.20;100.00
77240;BME280;66258;53.170;-2.240;2023-08-06T01:33:58;100291.81;;;20.12;100.00
77240;BME280;66258;53.170;-2.240;2023-08-06T01:36:31;100290.19;;;20.22;100.00
77240;BME280;66258;53.170;-2.240;2023-08-06T01:38:58;100292.25;;;20.27;100.00
77240;BME280;66258;53.170;-2.240;2023-08-06T01:41:25;100297.59;;;20.40;100.00
77240;BME280;66258;53.170;-2.240;2023-08-06T01:43:52;100298.66;;;20.39;100.00
77240;BME280;66258;53.170;-2.240;2023-08-06T01:46:23;100300.19;;;20.35;100.00
77240;BME280;66258;53.170;-2.240;2023-08-06T01:48:51;100303.84;;;20.29;100.00
77240;BME280;66258;53.170;-2.240;2023-08-06T01:51:19;100299.28;;;20.23;100.00
77240;BME280;66258;53.170;-2.240;2023-08-06T01:53:48;100299.50;;;20.40;100.00
77240;BME280;66258;53.170;-2.240;2023-08-06T01:56:17;100306.91;;;20.39;100.00
77240;BME280;66258;53.170;-2.240;2023-08-06T01:58:45;100307.22;;;20.49;100.00
77240;BME280;66258;53.170;-2.240;2023-08-06T02:01:12;100301.50;;;20.33;100.00
77240;BME280;66258;53.170;-2.240;2023-08-06T02:03:40;100311.28;;;20.29;100.00
77240;BME280;66258;53.170;-2.240;2023-08-06T02:06:07;100311.66;;;20.32;100.00
77240;BME280;66258;53.170;-2.240;2023-08-06T02:08:34;100307.00;;;20.33;100.00
77240;BME280;66258;53.170;-2.240;2023-08-06T02:11:03;100312.34;;;20.28;100.00
77240;BME280;66258;53.170;-2.240;2023-08-06T02:13:33;100294.84;;;20.22;100.00
77240;BME280;66258;53.170;-2.240;2023-08-06T02:16:06;100305.41;;;20.07;100.00
77240;BME280;66258;53.170;-2.240;2023-08-06T02:18:34;100299.13;;;19.81;100.00
77240;BME280;66258;53.170;-2.240;2023-08-06T02:21:01;100301.88;;;19.81;100.00
77240;BME280;66258;53.170;-2.240;2023-08-06T02:23:29;100295.53;;;19.81;100.00
77240;BME280;66258;53.170;-2.240;2023-08-06T02:25:58;100291.38;;;19.53;100.00
77240;BME280;66258;53.170;-2.240;2023-08-06T02:28:28;100299.78;;;19.77;100.00
77240;BME280;66258;53.170;-2.240;2023-08-06T02:30:55;100296.97;;;19.83;100.00
77240;BME280;66258;53.170;-2.240;2023-08-06T02:33:23;100302.63;;;19.88;100.00
77240;BME280;66258;53.170;-2.240;2023-08-06T02:35:50;100296.38;;;20.00;100.00
77240;BME280;66258;53.170;-2.240;2023-08-06T02:38:18;100300.28;;;20.10;100.00
77240;BME280;66258;53.170;-2.240;2023-08-06T02:40:55;100293.41;;;20.19;100.00
77240;BME280;66258;53.170;-2.240;2023-08-06T02:43:23;100297.06;;;20.32;100.00
77240;BME280;66258;53.170;-2.240;2023-08-06T02:45:51;100301.72;;;20.31;100.00
77240;BME280;66258;53.170;-2.240;2023-08-06T02:48:18;100298.16;;;19.94;100.00
77240;BME280;66258;53.170;-2.240;2023-08-06T02:50:46;100305.84;;;20.04;100.00
77240;BME280;66258;53.170;-2.240;2023-08-06T02:53:13;100306.41;;;20.12;100.00
77240;BME280;66258;53.170;-2.240;2023-08-06T02:55:45;100301.13;;;20.11;100.00
77240;BME280;66258;53.170;-2.240;2023-08-06T02:58:13;100300.34;;;20.04;100.00
77240;BME280;66258;53.170;-2.240;2023-08-06T03:00:41;100305.38;;;19.88;100.00
77240;BME280;66258;53.170;-2.240;2023-08-06T03:03:10;100312.09;;;19.74;100.00
77240;BME280;66258;53.170;-2.240;2023-08-06T03:05:37;100319.56;;;19.67;100.00
77240;BME280;66258;53.170;-2.240;2023-08-06T03:08:04;100314.94;;;19.61;100.00
77240;BME280;66258;53.170;-2.240;2023-08-06T03:10:31;100317.19;;;19.71;100.00
77240;BME280;66258;53.170;-2.240;2023-08-06T03:12:59;100323.38;;;19.84;100.00
77240;BME280;66258;53.170;-2.240;2023-08-06T03:15:26;100318.84;;;20.15;100.00
77240;BME280;66258;53.170;-2.240;2023-08-06T03:17:56;100312.56;;;20.26;100.00
77240;BME280;66258;53.170;-2.240;2023-08-06T03:20:25;100318.69;;;20.28;100.00
77240;BME280;66258;53.170;-2.240;2023-08-06T03:22:52;100318.59;;;20.35;100.00
77240;BME280;66258;53.170;-2.240;2023-08-06T03:25:20;100319.59;;;20.40;100.00
77240;BME280;66258;53.170;-2.240;2023-08-06T03:27:47;100314.03;;;20.47;100.00
77240;BME280;66258;53.170;-2.240;2023-08-06T03:30:17;100314.88;;;20.47;100.00
77240;BME280;66258;53.170;-2.240;2023-08-06T03:32:45;100315.84;;;20.53;100.00
77240;BME280;66258;53.170;-2.240;2023-08-06T03:35:12;100316.16;;;20.45;100.00
77240;BME280;66258;53.170;-2.240;2023-08-06T03:37:41;100321.06;;;20.43;100.00
77240;BME280;66258;53.170;-2.240;2023-08-06T03:40:11;100314.25;;;20.45;100.00
77240;BME280;66258;53.170;-2.240;2023-08-06T03:42:38;100313.03;;;20.41;100.00
77240;BME280;66258;53.170;-2.240;2023-08-06T03:45:07;100313.66;;;20.43;100.00
77240;BME280;66258;53.170;-2.240;2023-08-06T03:47:34;100309.66;;;20.39;100.00
77240;BME280;66258;53.170;-2.240;2023-08-06T03:50:05;100313.66;;;20.43;100.00
77240;BME280;66258;53.170;-2.240;2023-08-06T03:52:33;100312.50;;;20.51;100.00
77240;BME280;66258;53.170;-2.240;2023-08-06T03:55:02;100318.38;;;20.54;100.00
77240;BME280;66258;53.170;-2.240;2023-08-06T03:57:30;100316.25;;;20.56;100.00
77240;BME280;66258;53.170;-2.240;2023-08-06T03:59:57;100305.84;;;20.40;100.00
77240;BME280;66258;53.170;-2.240;2023-08-06T04:02:24;100304.78;;;20.41;100.00
77240;BME280;66258;53.170;-2.240;2023-08-06T04:04:52;100313.19;;;20.46;100.00
77240;BME280;66258;53.170;-2.240;2023-08-06T04:07:22;100312.41;;;20.39;100.00
77240;BME280;66258;53.170;-2.240;2023-08-06T04:09:54;100316.09;;;20.51;100.00
77240;BME280;66258;53.170;-2.240;2023-08-06T04:12:23;100316.94;;;20.52;100.00
77240;BME280;66258;53.170;-2.240;2023-08-06T04:14:51;100319.91;;;20.50;100.00
77240;BME280;66258;53.170;-2.240;2023-08-06T04:17:18;100323.41;;;20.57;100.00
77240;BME280;66258;53.170;-2.240;2023-08-06T04:19:47;100324.22;;;20.58;100.00
77240;BME280;66258;53.170;-2.240;2023-08-06T04:22:14;100331.28;;;20.54;100.00
77240;BME280;66258;53.170;-2.240;2023-08-06T04:24:42;100335.50;;;20.56;100.00
77240;BME280;66258;53.170;-2.240;2023-08-06T04:27:11;100337.75;;;20.59;100.00
77240;BME280;66258;53.170;-2.240;2023-08-06T04:29:40;100337.16;;;20.57;100.00
77240;BME280;66258;53.170;-2.240;2023-08-06T04:32:10;100341.50;;;20.65;100.00
77240;BME280;66258;53.170;-2.240;2023-08-06T04:34:37;100337.69;;;20.48;100.00
77240;BME280;66258;53.170;-2.240;2023-08-06T04:37:05;100337.03;;;20.52;100.00
77240;BME280;66258;53.170;-2.240;2023-08-06T04:39:32;100332.75;;;20.56;100.00
77240;BME280;66258;53.170;-2.240;2023-08-06T04:42:00;100342.34;;;20.66;100.00
77240;BME280;66258;53.170;-2.240;2023-08-06T04:44:27;100349.22;;;20.75;100.00
77240;BME280;66258;53.170;-2.240;2023-08-06T04:46:56;100343.72;;;20.75;100.00
77240;BME280;66258;53.170;-2.240;2023-08-06T04:49:25;100360.66;;;20.72;100.00
77240;BME280;66258;53.170;-2.240;2023-08-06T04:51:53;100357.06;;;20.71;100.00
77240;BME280;66258;53.170;-2.240;2023-08-06T04:54:21;100357.47;;;20.75;100.00
77240;BME280;66258;53.170;-2.240;2023-08-06T04:56:49;100357.47;;;20.75;100.00
77240;BME280;66258;53.170;-2.240;2023-08-06T04:59:16;100358.53;;;20.74;100.00
77240;BME280;66258;53.170;-2.240;2023-08-06T05:01:44;100357.13;;;20.83;100.00
77240;BME280;66258;53.170;-2.240;2023-08-06T05:04:13;100354.75;;;20.86;100.00
77240;BME280;66258;53.170;-2.240;2023-08-06T05:06:40;100356.34;;;20.94;100.00
77240;BME280;66258;53.170;-2.240;2023-08-06T05:09:11;100358.63;;;20.97;100.00
77240;BME280;66258;53.170;-2.240;2023-08-06T05:11:38;100366.97;;;20.90;100.00
77240;BME280;66258;53.170;-2.240;2023-08-06T05:14:06;100372.69;;;20.89;100.00
77240;BME280;66258;53.170;-2.240;2023-08-06T05:16:33;100372.25;;;20.92;100.00
77240;BME280;66258;53.170;-2.240;2023-08-06T05:19:01;100367.72;;;20.98;100.00
77240;BME280;66258;53.170;-2.240;2023-08-06T05:21:30;100374.41;;;21.02;100.00
77240;BME280;66258;53.170;-2.240;2023-08-06T05:23:57;100375.88;;;21.04;100.00
77240;BME280;66258;53.170;-2.240;2023-08-06T05:26:24;100375.56;;;21.12;100.00
77240;BME280;66258;53.170;-2.240;2023-08-06T05:28:51;100377.41;;;21.00;100.00
77240;BME280;66258;53.170;-2.240;2023-08-06T05:31:18;100380.19;;;20.82;100.00
77240;BME280;66258;53.170;-2.240;2023-08-06T05:33:46;100383.09;;;20.87;100.00
77240;BME280;66258;53.170;-2.240;2023-08-06T05:36:13;100385.09;;;20.98;100.00
77240;BME280;66258;53.170;-2.240;2023-08-06T05:38:42;100387.50;;;21.06;100.00
77240;BME280;66258;53.170;-2.240;2023-08-06T05:41:09;100385.72;;;21.12;100.00
77240;BME280;66258;53.170;-2.240;2023-08-06T05:43:37;100390.16;;;21.13;100.00
77240;BME280;66258;53.170;-2.240;2023-08-06T05:46:04;100388.53;;;21.23;100.00
77240;BME280;66258;53.170;-2.240;2023-08-06T05:48:31;100395.94;;;21.23;100.00
77240;BME280;66258;53.170;-2.240;2023-08-06T05:50:59;100401.75;;;21.45;100.00
77240;BME280;66258;53.170;-2.240;2023-08-06T05:53:26;100404.13;;;21.41;100.00
77240;BME280;66258;53.170;-2.240;2023-08-06T05:55:56;100404.41;;;21.51;100.00
77240;BME280;66258;53.170;-2.240;2023-08-06T05:58:23;100402.41;;;21.70;100.00
77240;BME280;66258;53.170;-2.240;2023-08-06T06:00:50;100401.22;;;21.78;100.00
77240;BME280;66258;53.170;-2.240;2023-08-06T06:03:17;100393.81;;;21.90;100.00
77240;BME280;66258;53.170;-2.240;2023-08-06T06:05:45;100410.38;;;22.13;100.00
77240;BME280;66258;53.170;-2.240;2023-08-06T06:08:12;100411.59;;;22.17;100.00
77240;BME280;66258;53.170;-2.240;2023-08-06T06:10:45;100415.03;;;22.24;100.00
77240;BME280;66258;53.170;-2.240;2023-08-06T06:13:14;100422.44;;;22.47;100.00
77240;BME280;66258;53.170;-2.240;2023-08-06T06:15:41;100421.97;;;22.50;100.00
77240;BME280;66258;53.170;-2.240;2023-08-06T06:18:09;100425.22;;;22.59;100.00
77240;BME280;66258;53.170;-2.240;2023-08-06T06:20:36;100421.44;;;22.77;100.00
77240;BME280;66258;53.170;-2.240;2023-08-06T06:23:03;100419.22;;;22.62;100.00
77240;BME280;66258;53.170;-2.240;2023-08-06T06:25:31;100423.75;;;22.80;100.00
77240;BME280;66258;53.170;-2.240;2023-08-06T06:27:58;100422.19;;;22.84;100.00
77240;BME280;66258;53.170;-2.240;2023-08-06T06:30:27;100426.59;;;22.73;100.00
77240;BME280;66258;53.170;-2.240;2023-08-06T06:32:55;100425.19;;;22.82;100.00
77240;BME280;66258;53.170;-2.240;2023-08-06T06:35:22;100428.50;;;22.96;100.00
77240;BME280;66258;53.170;-2.240;2023-08-06T06:37:49;100424.84;;;22.55;100.00
77240;BME280;66258;53.170;-2.240;2023-08-06T06:40:16;100428.72;;;22.43;100.00
77240;BME280;66258;53.170;-2.240;2023-08-06T06:42:43;100434.44;;;22.65;100.00
77240;BME280;66258;53.170;-2.240;2023-08-06T06:45:11;100441.59;;;22.66;100.00
77240;BME280;66258;53.170;-2.240;2023-08-06T06:47:40;100439.13;;;22.64;100.00
77240;BME280;66258;53.170;-2.240;2023-08-06T06:50:08;100438.53;;;22.50;100.00
77240;BME280;66258;53.170;-2.240;2023-08-06T06:52:35;100442.47;;;22.78;100.00
77240;BME280;66258;53.170;-2.240;2023-08-06T06:55:03;100445.56;;;22.70;100.00
77240;BME280;66258;53.170;-2.240;2023-08-06T06:57:31;100447.34;;;22.76;100.00
77240;BME280;66258;53.170;-2.240;2023-08-06T06:59:58;100448.09;;;22.83;100.00
77240;BME280;66258;53.170;-2.240;2023-08-06T07:02:25;100447.63;;;22.62;100.00
77240;BME280;66258;53.170;-2.240;2023-08-06T07:04:53;100453.84;;;22.70;100.00
77240;BME280;66258;53.170;-2.240;2023-08-06T07:07:21;100464.03;;;22.92;100.00
77240;BME280;66258;53.170;-2.240;2023-08-06T07:09:49;100464.97;;;22.98;100.00
77240;BME280;66258;53.170;-2.240;2023-08-06T07:12:16;100466.25;;;23.07;100.00
77240;BME280;66258;53.170;-2.240;2023-08-06T07:14:44;100467.56;;;23.16;100.00
77240;BME280;66258;53.170;-2.240;2023-08-06T07:17:11;100462.81;;;23.28;100.00
77240;BME280;66258;53.170;-2.240;2023-08-06T07:19:38;100469.28;;;23.06;100.00
77240;BME280;66258;53.170;-2.240;2023-08-06T07:22:07;100470.50;;;22.98;100.00
77240;BME280;66258;53.170;-2.240;2023-08-06T07:24:35;100468.22;;;23.07;100.00
77240;BME280;66258;53.170;-2.240;2023-08-06T07:27:06;100471.78;;;23.07;100.00
77240;BME280;66258;53.170;-2.240;2023-08-06T07:29:33;100476.97;;;22.92;100.00
77240;BME280;66258;53.170;-2.240;2023-08-06T07:32:01;100469.09;;;22.84;100.00
77240;BME280;66258;53.170;-2.240;2023-08-06T07:34:29;100474.81;;;23.34;100.00
77240;BME280;66258;53.170;-2.240;2023-08-06T07:36:56;100474.31;;;23.37;100.00
77240;BME280;66258;53.170;-2.240;2023-08-06T07:39:25;100478.59;;;23.16;100.00
77240;BME280;66258;53.170;-2.240;2023-08-06T07:41:53;100478.25;;;23.13;100.00
77240;BME280;66258;53.170;-2.240;2023-08-06T07:44:20;100472.69;;;23.24;100.00
77240;BME280;66258;53.170;-2.240;2023-08-06T07:46:48;100474.13;;;23.55;100.00
77240;BME280;66258;53.170;-2.240;2023-08-06T07:49:15;100470.66;;;23.77;100.00
77240;BME280;66258;53.170;-2.240;2023-08-06T07:51:43;100475.94;;;24.12;100.00
77240;BME280;66258;53.170;-2.240;2023-08-06T07:54:11;100473.88;;;24.02;100.00
77240;BME280;66258;53.170;-2.240;2023-08-06T07:56:40;100473.66;;;23.75;100.00
77240;BME280;66258;53.170;-2.240;2023-08-06T07:59:08;100481.66;;;24.05;100.00
77240;BME280;66258;53.170;-2.240;2023-08-06T08:01:35;100472.34;;;24.11;100.00
77240;BME280;66258;53.170;-2.240;2023-08-06T08:04:03;100474.09;;;24.17;100.00
77240;BME280;66258;53.170;-2.240;2023-08-06T08:06:32;100465.06;;;23.88;100.00
77240;BME280;66258;53.170;-2.240;2023-08-06T08:09:00;100467.41;;;23.80;100.00
77240;BME280;66258;53.170;-2.240;2023-08-06T08:11:27;100472.16;;;23.39;100.00
77240;BME280;66258;53.170;-2.240;2023-08-06T08:13:56;100477.00;;;23.49;100.00
77240;BME280;66258;53.170;-2.240;2023-08-06T08:16:23;100473.00;;;23.40;100.00
77240;BME280;66258;53.170;-2.240;2023-08-06T08:18:51;100475.59;;;22.78;100.00
77240;BME280;66258;53.170;-2.240;2023-08-06T08:21:18;100475.25;;;23.43;100.00
77240;BME280;66258;53.170;-2.240;2023-08-06T08:23:46;100486.16;;;23.94;100.00
77240;BME280;66258;53.170;-2.240;2023-08-06T08:26:14;100483.41;;;24.11;100.00
77240;BME280;66258;53.170;-2.240;2023-08-06T08:28:41;100483.34;;;23.89;100.00
77240;BME280;66258;53.170;-2.240;2023-08-06T08:31:10;100478.59;;;23.73;100.00
77240;BME280;66258;53.170;-2.240;2023-08-06T08:33:41;100485.69;;;23.12;100.00
77240;BME280;66258;53.170;-2.240;2023-08-06T08:36:08;100486.94;;;22.93;100.00
77240;BME280;66258;53.170;-2.240;2023-08-06T08:38:36;100485.25;;;23.04;100.00
77240;BME280;66258;53.170;-2.240;2023-08-06T08:41:03;100487.00;;;23.10;100.00
77240;BME280;66258;53.170;-2.240;2023-08-06T08:43:31;100490.78;;;23.04;100.00
77240;BME280;66258;53.170;-2.240;2023-08-06T08:45:59;100490.19;;;23.02;100.00
77240;BME280;66258;53.170;-2.240;2023-08-06T08:48:30;100492.13;;;23.29;100.00
77240;BME280;66258;53.170;-2.240;2023-08-06T08:50:58;100489.28;;;23.53;100.00
77240;BME280;66258;53.170;-2.240;2023-08-06T08:53:27;100487.63;;;23.40;100.00
77240;BME280;66258;53.170;-2.240;2023-08-06T08:55:55;100500.00;;;24.11;100.00
77240;BME280;66258;53.170;-2.240;2023-08-06T08:58:22;100492.78;;;23.93;100.00
77240;BME280;66258;53.170;-2.240;2023-08-06T09:00:53;100502.00;;;24.16;100.00
77240;BME280;66258;53.170;-2.240;2023-08-06T09:03:23;100501.91;;;23.77;100.00
77240;BME280;66258;53.170;-2.240;2023-08-06T09:05:53;100498.84;;;24.41;100.00
77240;BME280;66258;53.170;-2.240;2023-08-06T09:08:27;100510.25;;;24.44;100.00
77240;BME280;66258;53.170;-2.240;2023-08-06T09:10:56;100504.44;;;25.01;100.00
77240;BME280;66258;53.170;-2.240;2023-08-06T09:13:25;100509.06;;;25.17;100.00
77240;BME280;66258;53.170;-2.240;2023-08-06T09:15:55;100510.63;;;25.30;100.00
77240;BME280;66258;53.170;-2.240;2023-08-06T09:18:26;100501.19;;;24.87;100.00
77240;BME280;66258;53.170;-2.240;2023-08-06T09:20:57;100511.00;;;25.39;100.00
77240;BME280;66258;53.170;-2.240;2023-08-06T09:23:29;100511.59;;;25.19;98.79
77240;BME280;66258;53.170;-2.240;2023-08-06T09:25:56;100518.19;;;25.40;100.00
77240;BME280;66258;53.170;-2.240;2023-08-06T09:28:24;100516.44;;;25.28;99.25
77240;BME280;66258;53.170;-2.240;2023-08-06T09:30:52;100518.84;;;25.47;99.97
77240;BME280;66258;53.170;-2.240;2023-08-06T09:33:22;100514.09;;;25.20;97.85
77240;BME280;66258;53.170;-2.240;2023-08-06T09:35:49;100514.91;;;25.43;97.06
77240;BME280;66258;53.170;-2.240;2023-08-06T09:38:18;100521.22;;;24.94;98.35
77240;BME280;66258;53.170;-2.240;2023-08-06T09:40:48;100528.09;;;25.30;100.00
77240;BME280;66258;53.170;-2.240;2023-08-06T09:43:19;100519.28;;;25.12;97.72
77240;BME280;66258;53.170;-2.240;2023-08-06T09:45:46;100521.50;;;25.37;97.50
77240;BME280;66258;53.170;-2.240;2023-08-06T09:48:14;100533.75;;;25.41;99.36
77240;BME280;66258;53.170;-2.240;2023-08-06T09:50:41;100534.13;;;25.71;96.96
77240;BME280;66258;53.170;-2.240;2023-08-06T09:53:08;100534.22;;;25.11;94.15
77240;BME280;66258;53.170;-2.240;2023-08-06T09:55:37;100534.00;;;24.95;97.43
77240;BME280;66258;53.170;-2.240;2023-08-06T09:58:04;100538.34;;;25.08;97.05
77240;BME280;66258;53.170;-2.240;2023-08-06T10:00:31;100532.28;;;24.73;94.90
77240;BME280;66258;53.170;-2.240;2023-08-06T10:03:02;100545.19;;;24.67;94.49
77240;BME280;66258;53.170;-2.240;2023-08-06T10:05:31;100541.09;;;24.70;96.31
77240;BME280;66258;53.170;-2.240;2023-08-06T10:08:00;100545.38;;;24.60;96.46
77240;BME280;66258;53.170;-2.240;2023-08-06T10:10:29;100544.31;;;25.00;96.21
77240;BME280;66258;53.170;-2.240;2023-08-06T10:12:59;100542.19;;;25.07;94.04
77240;BME280;66258;53.170;-2.240;2023-08-06T10:15:31;100553.03;;;25.09;92.48
77240;BME280;66258;53.170;-2.240;2023-08-06T10:17:59;100541.72;;;24.93;94.92
77240;BME280;66258;53.170;-2.240;2023-08-06T10:20:33;100549.00;;;25.21;92.70
77240;BME280;66258;53.170;-2.240;2023-08-06T10:23:01;100549.72;;;25.55;92.06
77240;BME280;66258;53.170;-2.240;2023-08-06T10:25:31;100557.06;;;25.66;91.22
77240;BME280;66258;53.170;-2.240;2023-08-06T10:28:00;100558.25;;;25.27;89.56
77240;BME280;66258;53.170;-2.240;2023-08-06T10:30:31;100554.19;;;25.34;89.25
77240;BME280;66258;53.170;-2.240;2023-08-06T10:33:00;100547.56;;;25.14;89.59
77240;BME280;66258;53.170;-2.240;2023-08-06T10:35:30;100560.53;;;25.79;93.24
77240;BME280;66258;53.170;-2.240;2023-08-06T10:37:59;100561.94;;;26.35;90.30
77240;BME280;66258;53.170;-2.240;2023-08-06T10:40:33;100552.75;;;25.76;82.93
77240;BME280;66258;53.170;-2.240;2023-08-06T10:43:03;100564.59;;;26.25;86.10
77240;BME280;66258;53.170;-2.240;2023-08-06T10:45:34;100560.97;;;25.92;82.05
77240;BME280;66258;53.170;-2.240;2023-08-06T10:48:02;100571.91;;;25.77;85.87
77240;BME280;66258;53.170;-2.240;2023-08-06T10:50:30;100561.16;;;26.13;93.38
77240;BME280;66258;53.170;-2.240;2023-08-06T10:52:58;100559.94;;;26.03;86.22
77240;BME280;66258;53.170;-2.240;2023-08-06T10:55:30;100562.19;;;26.07;88.81
77240;BME280;66258;53.170;-2.240;2023-08-06T10:57:58;100557.47;;;25.53;87.58
77240;BME280;66258;53.170;-2.240;2023-08-06T11:00:30;100564.06;;;25.96;88.26
77240;BME280;66258;53.170;-2.240;2023-08-06T11:02:57;100568.81;;;26.64;90.07
77240;BME280;66258;53.170;-2.240;2023-08-06T11:05:24;100569.06;;;26.58;83.94
77240;BME280;66258;53.170;-2.240;2023-08-06T11:07:52;100564.50;;;26.79;85.22
77240;BME280;66258;53.170;-2.240;2023-08-06T11:10:19;100560.66;;;26.48;85.36
77240;BME280;66258;53.170;-2.240;2023-08-06T11:12:47;100573.94;;;25.87;84.92
77240;BME280;66258;53.170;-2.240;2023-08-06T11:15:14;100568.16;;;25.45;86.54
77240;BME280;66258;53.170;-2.240;2023-08-06T11:17:43;100570.94;;;25.66;91.33
77240;BME280;66258;53.170;-2.240;2023-08-06T11:20:12;100570.63;;;25.63;92.20
77240;BME280;66258;53.170;-2.240;2023-08-06T11:22:43;100567.25;;;25.39;96.36
77240;BME280;66258;53.170;-2.240;2023-08-06T11:25:10;100562.00;;;24.99;97.75
77240;BME280;66258;53.170;-2.240;2023-08-06T11:27:37;100563.88;;;25.37;97.56
77240;BME280;66258;53.170;-2.240;2023-08-06T11:30:06;100562.59;;;25.01;96.91
77240;BME280;66258;53.170;-2.240;2023-08-06T11:32:46;100564.78;;;24.82;95.36
77240;BME280;66258;53.170;-2.240;2023-08-06T11:35:15;100562.63;;;24.67;97.57
77240;BME280;66258;53.170;-2.240;2023-08-06T11:37:44;100567.22;;;24.95;96.84
77240;BME280;66258;53.170;-2.240;2023-08-06T11:40:11;100562.13;;;24.71;96.14
77240;BME280;66258;53.170;-2.240;2023-08-06T11:42:39;100563.81;;;24.38;95.91
77240;BME280;66258;53.170;-2.240;2023-08-06T11:45:07;100563.66;;;24.61;96.65
77240;BME280;66258;53.170;-2.240;2023-08-06T11:47:37;100564.13;;;24.92;95.78
77240;BME280;66258;53.170;-2.240;2023-08-06T11:50:06;100566.00;;;25.95;96.30
77240;BME280;66258;53.170;-2.240;2023-08-06T11:52:33;100562.91;;;26.24;89.64
77240;BME280;66258;53.170;-2.240;2023-08-06T11:55:01;100576.69;;;26.41;91.18
77240;BME280;66258;53.170;-2.240;2023-08-06T11:57:30;100563.59;;;25.12;88.86
77240;BME280;66258;53.170;-2.240;2023-08-06T11:59:57;100571.19;;;25.21;91.90
77240;BME280;66258;53.170;-2.240;2023-08-06T12:02:25;100574.34;;;25.52;93.17
77240;BME280;66258;53.170;-2.240;2023-08-06T12:05:15;100574.41;;;24.13;94.57
77240;BME280;66258;53.170;-2.240;2023-08-06T12:07:46;100576.66;;;24.61;94.30
77240;BME280;66258;53.170;-2.240;2023-08-06T12:10:14;100576.03;;;24.09;95.08
77240;BME280;66258;53.170;-2.240;2023-08-06T12:12:44;100579.88;;;23.79;97.04
77240;BME280;66258;53.170;-2.240;2023-08-06T12:15:11;100579.88;;;23.79;98.20
77240;BME280;66258;53.170;-2.240;2023-08-06T12:17:39;100580.16;;;23.94;98.31
77240;BME280;66258;53.170;-2.240;2023-08-06T12:20:07;100581.09;;;24.28;97.95
77240;BME280;66258;53.170;-2.240;2023-08-06T12:22:37;100579.66;;;24.59;99.57
77240;BME280;66258;53.170;-2.240;2023-08-06T12:25:06;100580.97;;;24.90;98.30
77240;BME280;66258;53.170;-2.240;2023-08-06T12:27:37;100577.56;;;24.66;96.01
77240;BME280;66258;53.170;-2.240;2023-08-06T12:30:06;100585.84;;;25.00;95.43
77240;BME280;66258;53.170;-2.240;2023-08-06T12:32:33;100589.88;;;25.09;92.99
77240;BME280;66258;53.170;-2.240;2023-08-06T12:35:01;100592.84;;;24.52;92.46
77240;BME280;66258;53.170;-2.240;2023-08-06T12:37:31;100598.88;;;24.49;95.25
77240;BME280;66258;53.170;-2.240;2023-08-06T12:39:59;100594.69;;;24.63;96.99